createdAt,value
2022-08-09T00:01:10.553Z,3.03
2022-08-09T00:04:03.619Z,3.45
2022-08-09T00:06:29.104Z,3.28
2022-08-09T00:08:58.972Z,2.90
2022-08-09T00:12:02.950Z,3.22
2022-08-09T00:14:17.392Z,2.78
2022-08-09T00:16:54.930Z,2.50
2022-08-09T00:19:21.713Z,2.53
2022-08-09T00:21:55.827Z,2.95
2022-08-09T00:24:24.321Z,3.00
2022-08-09T00:26:51.252Z,2.70
2022-08-09T00:29:39.812Z,2.47
2022-08-09T00:32:06.173Z,3.20
2022-08-09T00:34:33.550Z,2.42
2022-08-09T00:37:00.452Z,2.80
2022-08-09T00:40:12.806Z,2.50
2022-08-09T00:44:10.961Z,2.50
2022-08-09T00:45:01.969Z,2.97
2022-08-09T00:47:33.219Z,2.75
2022-08-09T00:50:02.766Z,2.80
2022-08-09T00:52:31.154Z,2.97
2022-08-09T00:55:01.533Z,2.70
2022-08-09T00:57:34.991Z,2.70
2022-08-09T01:00:05.311Z,2.30
2022-08-09T01:02:49.584Z,2.75
2022-08-09T01:05:53.222Z,2.30
2022-08-09T01:08:33.318Z,2.50
2022-08-09T01:11:04.367Z,2.63
2022-08-09T01:14:02.046Z,2.80
2022-08-09T01:16:40.832Z,2.60
2022-08-09T01:19:39.842Z,2.83
2022-08-09T01:22:22.839Z,2.75
2022-08-09T01:25:13.262Z,2.70
2022-08-09T01:27:44.519Z,2.70
2022-08-09T01:30:28.758Z,2.40
2022-08-09T01:33:02.573Z,2.70
2022-08-09T01:35:51.876Z,2.33
2022-08-09T01:38:31.276Z,2.60
2022-08-09T01:41:13.829Z,2.83
2022-08-09T01:43:51.831Z,2.83
2022-08-09T01:46:31.835Z,2.60
2022-08-09T01:49:10.024Z,2.13
2022-08-09T01:51:39.379Z,2.42
2022-08-09T01:54:11.220Z,2.30
2022-08-09T01:56:40.460Z,2.40
2022-08-09T01:59:09.689Z,2.58
2022-08-09T02:01:59.047Z,2.25
2022-08-09T02:04:24.394Z,2.65
2022-08-09T02:07:18.164Z,2.85
2022-08-09T02:10:09.875Z,2.40
2022-08-09T02:12:36.811Z,2.58
2022-08-09T02:15:07.683Z,2.97
2022-08-09T02:18:00.684Z,2.70
2022-08-09T02:20:25.107Z,2.40
2022-08-09T02:23:02.660Z,2.33
2022-08-09T02:25:33.181Z,2.05
2022-08-09T02:28:18.018Z,2.70
2022-08-09T02:30:59.948Z,2.13
2022-08-09T02:33:37.725Z,2.50
2022-08-09T02:36:21.971Z,2.70
2022-08-09T02:38:54.439Z,2.60
2022-08-09T02:41:45.086Z,2.50
2022-08-09T02:44:30.190Z,2.72
2022-08-09T02:46:58.800Z,2.30
2022-08-09T02:49:27.302Z,2.17
2022-08-09T02:52:06.305Z,2.47
2022-08-09T02:54:34.674Z,2.90
2022-08-09T02:57:13.976Z,2.72
2022-08-09T03:00:20.965Z,2.30
2022-08-09T03:02:37.533Z,2.42
2022-08-09T03:05:16.594Z,2.50
2022-08-09T03:07:54.778Z,2.35
2022-08-09T03:10:22.316Z,2.70
2022-08-09T03:12:49.490Z,2.30
2022-08-09T03:15:20.637Z,2.50
2022-08-09T03:17:57.810Z,2.58
2022-08-09T03:20:29.702Z,2.25
2022-08-09T03:23:00.316Z,2.40
2022-08-09T03:25:56.896Z,2.53
2022-08-09T03:28:28.663Z,2.30
2022-08-09T03:30:57.155Z,3.20
2022-08-09T03:33:23.991Z,2.33
2022-08-09T03:36:12.903Z,2.25
2022-08-09T03:38:41.955Z,2.33
2022-08-09T03:41:09.876Z,2.47
2022-08-09T03:43:41.829Z,2.40
2022-08-09T03:46:20.544Z,2.30
2022-08-09T03:48:58.121Z,2.10
2022-08-09T03:51:56.867Z,2.75
2022-08-09T03:54:12.980Z,2.85
2022-08-09T03:56:46.496Z,2.92
2022-08-09T03:59:21.126Z,2.38
2022-08-09T04:01:56.012Z,2.33
2022-08-09T04:04:36.167Z,2.40
2022-08-09T04:07:06.002Z,2.22
2022-08-09T04:09:48.214Z,2.13
2022-08-09T04:12:41.749Z,2.50
2022-08-09T04:15:29.618Z,2.35
2022-08-09T04:17:58.882Z,2.72
2022-08-09T04:20:26.003Z,2.58
2022-08-09T04:22:53.546Z,2.38
2022-08-09T04:25:20.945Z,2.05
2022-08-09T04:27:49.400Z,2.63
2022-08-09T04:30:18.027Z,2.15
2022-08-09T04:32:47.832Z,2.15
2022-08-09T04:35:15.325Z,2.00
2022-08-09T04:37:46.239Z,3.08
2022-08-09T04:40:19.200Z,1.83
2022-08-09T04:42:56.782Z,1.95
2022-08-09T04:45:23.975Z,1.88
2022-08-09T04:47:58.857Z,1.80
2022-08-09T04:50:35.076Z,2.10
2022-08-09T04:53:13.002Z,2.25
2022-08-09T04:55:43.468Z,1.65
2022-08-09T04:58:25.785Z,1.77
2022-08-09T05:00:54.576Z,1.73
2022-08-09T05:03:40.301Z,2.70
2022-08-09T05:06:08.611Z,1.80
2022-08-09T05:08:35.641Z,1.70
2022-08-09T05:11:03.066Z,1.73
2022-08-09T05:13:33.150Z,2.13
2022-08-09T05:16:00.832Z,1.75
2022-08-09T05:18:38.008Z,2.28
2022-08-09T05:21:23.329Z,2.10
2022-08-09T05:23:59.760Z,1.77
2022-08-09T05:26:37.524Z,1.90
2022-08-09T05:29:17.753Z,2.00
2022-08-09T05:31:57.272Z,2.00
2022-08-09T05:34:30.913Z,1.80
2022-08-09T05:37:06.655Z,2.10
2022-08-09T05:39:43.641Z,2.60
2022-08-09T05:42:17.409Z,2.15
2022-08-09T05:44:50.695Z,2.10
2022-08-09T05:47:19.081Z,1.73
2022-08-09T05:50:24.418Z,1.85
2022-08-09T05:52:32.787Z,1.65
2022-08-09T05:55:03.249Z,1.92
2022-08-09T05:57:55.120Z,1.63
2022-08-09T06:00:22.261Z,1.80
2022-08-09T06:02:49.231Z,2.00
2022-08-09T06:05:31.306Z,1.77
2022-08-09T06:08:09.022Z,1.80
2022-08-09T06:10:39.170Z,1.63
2022-08-09T06:13:12.256Z,1.50
2022-08-09T06:15:46.874Z,1.88
2022-08-09T06:18:15.762Z,1.25
2022-08-09T06:20:43.565Z,1.60
2022-08-09T06:23:21.759Z,1.65
2022-08-09T06:25:49.381Z,1.80
2022-08-09T06:28:22.020Z,1.50
2022-08-09T06:30:54.318Z,1.60
2022-08-09T06:33:40.626Z,1.35
2022-08-09T06:36:09.324Z,1.80
2022-08-09T06:38:37.625Z,1.60
2022-08-09T06:41:18.314Z,1.67
2022-08-09T06:43:46.624Z,1.50
2022-08-09T06:46:40.089Z,1.85
2022-08-09T06:49:00.621Z,1.70
2022-08-09T06:51:28.141Z,1.70
2022-08-09T06:53:55.396Z,1.83
2022-08-09T06:56:30.627Z,1.55
2022-08-09T07:00:49.123Z,1.50
2022-08-09T07:01:53.874Z,1.98
2022-08-09T07:04:24.508Z,1.75
2022-08-09T07:06:53.167Z,1.75
2022-08-09T07:09:54.900Z,1.70
2022-08-09T07:12:07.761Z,1.60
2022-08-09T07:14:44.566Z,1.75
2022-08-09T07:17:11.908Z,1.50
2022-08-09T07:19:38.901Z,1.92
2022-08-09T07:22:05.808Z,1.75
2022-08-09T07:24:40.185Z,1.52
2022-08-09T07:27:26.946Z,1.88
2022-08-09T07:29:58.729Z,1.40
2022-08-09T07:32:33.415Z,2.00
2022-08-09T07:35:10.719Z,1.50
2022-08-09T07:37:43.352Z,1.40
2022-08-09T07:40:17.665Z,1.60
2022-08-09T07:42:54.539Z,1.75
2022-08-09T07:45:36.928Z,1.70
2022-08-09T07:48:05.750Z,1.70
2022-08-09T07:50:36.508Z,1.70
2022-08-09T07:53:04.640Z,1.88
2022-08-09T07:55:41.491Z,1.63
2022-08-09T07:58:21.782Z,2.15
2022-08-09T08:00:58.784Z,1.70
2022-08-09T08:03:33.310Z,1.75
2022-08-09T08:06:04.427Z,1.85
2022-08-09T08:09:02.690Z,1.95
2022-08-09T08:12:11.321Z,2.45
2022-08-09T08:14:06.224Z,1.90
2022-08-09T08:16:33.258Z,1.70
2022-08-09T08:19:02.948Z,1.70
2022-08-09T08:21:30.869Z,1.80
2022-08-09T08:24:00.875Z,1.73
2022-08-09T08:26:55.277Z,1.90
2022-08-09T08:29:20.458Z,1.50
2022-08-09T08:32:05.823Z,1.70
2022-08-09T08:34:34.752Z,1.48
2022-08-09T08:37:03.457Z,1.67
2022-08-09T08:39:38.277Z,1.98
2022-08-09T08:42:06.904Z,1.80
2022-08-09T08:44:36.996Z,1.73
2022-08-09T08:47:13.166Z,1.90
2022-08-09T08:49:48.310Z,2.03
2022-08-09T08:55:05.888Z,1.90
2022-08-09T08:57:35.332Z,1.85
2022-08-09T09:00:12.877Z,2.00
2022-08-09T09:02:52.291Z,1.80
2022-08-09T09:07:59.829Z,1.48
2022-08-09T09:10:26.815Z,1.83
2022-08-09T09:12:53.548Z,1.55
2022-08-09T09:15:28.592Z,2.08
2022-08-09T09:20:22.412Z,1.80
2022-08-09T09:22:55.537Z,2.08
2022-08-09T09:26:03.524Z,2.03
2022-08-09T09:29:01.899Z,2.00
2022-08-09T09:32:04.659Z,2.35
2022-08-09T09:34:14.349Z,2.28
2022-08-09T09:36:52.747Z,2.05
2022-08-09T09:39:23.241Z,2.30
2022-08-09T09:41:50.927Z,2.20
2022-08-09T09:44:32.799Z,2.17
2022-08-09T09:47:10.842Z,2.10
2022-08-09T09:50:07.446Z,2.17
2022-08-09T09:52:35.750Z,2.08
2022-08-09T09:55:27.851Z,2.10
2022-08-09T09:58:18.235Z,2.03
2022-08-09T10:00:52.800Z,2.08
2022-08-09T10:03:57.488Z,2.08
2022-08-09T10:06:43.492Z,1.90
2022-08-09T10:09:22.544Z,2.30
2022-08-09T10:12:26.824Z,2.15
2022-08-09T10:14:48.679Z,2.33
2022-08-09T10:17:40.536Z,2.30
2022-08-09T10:20:27.171Z,2.13
2022-08-09T10:23:13.511Z,2.20
2022-08-09T10:26:04.865Z,2.03
2022-08-09T10:28:32.189Z,2.22
2022-08-09T10:34:10.987Z,2.00
2022-08-09T10:36:33.195Z,2.30
2022-08-09T10:39:02.327Z,2.30
2022-08-09T10:41:29.086Z,2.67
2022-08-09T10:44:01.357Z,2.50
2022-08-09T10:46:55.594Z,1.92
2022-08-09T10:49:51.270Z,2.00
2022-08-09T10:52:44.983Z,2.25
2022-08-09T10:55:27.757Z,2.28
2022-08-09T10:57:55.395Z,2.10
2022-08-09T11:00:35.648Z,1.90
2022-08-09T11:03:18.565Z,2.13
2022-08-09T11:06:15.396Z,2.00
2022-08-09T11:08:47.427Z,2.00
2022-08-09T11:11:18.091Z,1.90
2022-08-09T11:13:53.833Z,2.00
2022-08-09T11:16:37.731Z,2.10
2022-08-09T11:19:08.089Z,1.90
2022-08-09T11:22:16.659Z,1.90
2022-08-09T11:25:14.848Z,1.95
2022-08-09T11:28:04.566Z,2.10
2022-08-09T11:30:32.876Z,1.80
2022-08-09T11:33:19.681Z,1.73
2022-08-09T11:35:50.203Z,1.80
2022-08-09T11:38:32.415Z,1.70
2022-08-09T11:41:13.696Z,1.75
2022-08-09T11:43:46.648Z,1.73
2022-08-09T11:46:18.541Z,1.80
2022-08-09T11:48:59.992Z,2.03
2022-08-09T11:53:00.885Z,1.83
2022-08-09T11:54:27.908Z,1.45
2022-08-09T11:57:47.757Z,1.60
2022-08-09T12:00:27.724Z,1.80
2022-08-09T12:02:56.514Z,1.58
2022-08-09T12:05:37.668Z,1.55
2022-08-09T12:08:09.437Z,1.67
2022-08-09T12:11:08.686Z,1.63
2022-08-09T12:14:10.298Z,1.70
2022-08-09T12:16:39.993Z,1.25
2022-08-09T12:19:09.297Z,1.55
2022-08-09T12:21:50.861Z,1.80
2022-08-09T12:24:24.951Z,1.33
2022-08-09T12:28:58.494Z,1.70
2022-08-09T12:30:02.102Z,1.42
2022-08-09T12:32:40.752Z,1.60
2022-08-09T12:35:10.839Z,1.40
2022-08-09T12:37:50.768Z,1.50
2022-08-09T12:40:20.493Z,1.55
2022-08-09T12:42:50.613Z,1.42
2022-08-09T12:45:34.381Z,1.35
2022-08-09T12:48:05.587Z,1.77
2022-08-09T12:50:35.828Z,1.42
2022-08-09T12:53:17.527Z,1.55
2022-08-09T12:56:12.411Z,1.63
2022-08-09T12:58:33.954Z,1.38
2022-08-09T13:01:04.749Z,1.38
2022-08-09T13:03:53.445Z,1.80
2022-08-09T13:06:44.209Z,1.75
2022-08-09T13:09:14.838Z,1.40
2022-08-09T13:11:45.727Z,1.55
2022-08-09T13:14:41.542Z,1.25
2022-08-09T13:17:44.056Z,1.90
2022-08-09T13:20:13.939Z,1.50
2022-08-09T13:23:05.740Z,1.50
2022-08-09T13:25:42.453Z,1.30
2022-08-09T13:28:24.447Z,1.70
2022-08-09T13:32:18.067Z,1.27
2022-08-09T13:33:58.290Z,1.50
2022-08-09T13:36:41.051Z,1.23
2022-08-09T13:41:19.296Z,1.40
2022-08-09T13:42:11.954Z,1.70
2022-08-09T13:44:40.229Z,1.40
2022-08-09T13:47:25.236Z,1.50
2022-08-09T13:50:08.731Z,1.55
2022-08-09T13:52:45.883Z,1.65
2022-08-09T13:55:15.041Z,1.30
2022-08-09T13:57:47.381Z,1.52
2022-08-09T14:00:23.275Z,1.50
2022-08-09T14:03:16.747Z,1.23
2022-08-09T14:05:58.389Z,1.40
2022-08-09T14:08:28.794Z,3.85
2022-08-09T14:10:56.765Z,1.33
2022-08-09T14:13:28.159Z,1.63
2022-08-09T14:16:15.352Z,1.25
2022-08-09T14:18:47.972Z,1.80
2022-08-09T14:21:18.563Z,1.30
2022-08-09T14:23:55.455Z,1.48
2022-08-09T14:26:31.766Z,1.63
2022-08-09T14:29:02.190Z,1.10
2022-08-09T14:31:35.821Z,1.23
2022-08-09T14:34:17.337Z,0.93
2022-08-09T14:36:55.391Z,1.25
2022-08-09T14:39:22.278Z,1.52
2022-08-09T14:42:09.029Z,1.15
2022-08-09T14:44:48.702Z,1.30
2022-08-09T14:47:42.762Z,1.65
2022-08-09T14:50:09.480Z,1.35
2022-08-09T14:52:37.978Z,1.05
2022-08-09T14:55:06.910Z,1.70
2022-08-09T14:57:43.372Z,1.30
2022-08-09T15:00:11.607Z,1.20
2022-08-09T15:02:38.782Z,1.30
2022-08-09T15:05:07.220Z,1.25
2022-08-09T15:07:35.043Z,1.30
2022-08-09T15:10:10.741Z,1.20
2022-08-09T15:12:44.816Z,1.50
2022-08-09T15:15:13.150Z,1.75
2022-08-09T15:17:41.837Z,2.03
2022-08-09T15:20:11.827Z,1.52
2022-08-09T15:22:46.535Z,1.10
2022-08-09T15:25:14.566Z,1.98
2022-08-09T15:28:01.941Z,1.20
2022-08-09T15:30:57.009Z,1.15
2022-08-09T15:33:23.491Z,1.60
2022-08-09T15:36:05.851Z,1.67
2022-08-09T15:38:33.885Z,1.45
2022-08-09T15:41:02.065Z,1.40
2022-08-09T15:43:38.486Z,1.40
2022-08-09T15:46:28.772Z,1.77
2022-08-09T15:49:21.076Z,1.20
2022-08-09T15:52:01.938Z,1.35
2022-08-09T15:54:33.564Z,1.67
2022-08-09T15:57:34.080Z,1.48
2022-08-09T16:00:08.348Z,1.48
2022-08-09T16:02:35.106Z,2.55
2022-08-09T16:05:06.910Z,1.15
2022-08-09T16:07:38.823Z,1.50
2022-08-09T16:12:58.965Z,1.60
2022-08-09T16:16:09.768Z,1.20
2022-08-09T16:18:13.412Z,1.40
2022-08-09T16:20:41.673Z,1.27
2022-08-09T16:23:11.610Z,1.40
2022-08-09T16:25:40.822Z,1.42
2022-08-09T16:28:07.976Z,1.50
2022-08-09T16:30:44.700Z,1.60
2022-08-09T16:33:15.789Z,1.88
2022-08-09T16:35:57.476Z,4.20
2022-08-09T16:38:27.677Z,3.38
2022-08-09T16:40:59.172Z,5.60
2022-08-09T16:43:33.249Z,3.58
2022-08-09T16:48:52.089Z,6.00
2022-08-09T16:51:55.292Z,6.95
2022-08-09T16:54:27.830Z,2.40
2022-08-09T16:57:01.529Z,5.25
2022-08-09T16:59:28.277Z,3.67
2022-08-09T17:02:01.705Z,3.05
2022-08-09T17:04:28.886Z,4.00
2022-08-09T17:08:41.353Z,2.67
2022-08-09T17:09:43.990Z,2.60
2022-08-09T17:12:13.170Z,2.10
2022-08-09T17:14:47.748Z,2.13
2022-08-09T17:17:27.246Z,1.80
2022-08-09T17:20:28.793Z,1.73
2022-08-09T17:22:49.818Z,1.75
2022-08-09T17:25:18.755Z,1.77
2022-08-09T17:27:49.204Z,1.90
2022-08-09T17:30:20.918Z,2.22
2022-08-09T17:35:43.652Z,1.70
2022-08-09T17:38:13.847Z,2.10
2022-08-09T17:40:57.405Z,1.85
2022-08-09T17:43:33.635Z,1.80
2022-08-09T17:46:09.091Z,1.75
2022-08-09T17:48:38.684Z,1.88
2022-08-09T17:51:09.520Z,1.98
2022-08-09T17:53:52.259Z,2.30
2022-08-09T17:56:35.525Z,2.38
2022-08-09T17:59:09.065Z,2.35
2022-08-09T18:01:41.434Z,1.60
2022-08-09T18:04:25.246Z,2.00
2022-08-09T18:06:55.136Z,1.90
2022-08-09T18:09:35.860Z,2.10
2022-08-09T18:12:17.494Z,2.20
2022-08-09T18:14:53.908Z,1.90
2022-08-09T18:17:27.362Z,2.20
2022-08-09T18:20:59.748Z,2.00
2022-08-09T18:22:57.148Z,1.88
2022-08-09T18:25:53.238Z,1.80
2022-08-09T18:30:35.951Z,2.30
2022-08-09T18:31:05.308Z,1.95
2022-08-09T18:33:34.403Z,1.40
2022-08-09T18:36:01.285Z,1.80
2022-08-09T18:38:28.231Z,2.38
2022-08-09T18:40:55.717Z,1.90
2022-08-09T18:43:23.259Z,1.85
2022-08-09T18:46:50.383Z,2.00
2022-08-09T18:48:38.444Z,1.70
2022-08-09T18:51:09.463Z,1.80
2022-08-09T18:53:56.303Z,2.10
2022-08-09T18:56:27.154Z,1.60
2022-08-09T18:58:56.323Z,1.75
2022-08-09T19:01:23.644Z,1.85
2022-08-09T19:04:01.666Z,1.95
2022-08-09T19:06:36.277Z,1.67
2022-08-09T19:09:06.373Z,2.08
2022-08-09T19:11:35.383Z,1.63
2022-08-09T19:14:05.333Z,1.63
2022-08-09T19:16:36.500Z,1.75
2022-08-09T19:19:19.258Z,1.52
2022-08-09T19:22:06.359Z,1.60
2022-08-09T19:25:11.305Z,1.70
2022-08-09T19:27:25.859Z,1.88
2022-08-09T19:30:23.821Z,2.00
2022-08-09T19:32:42.452Z,2.22
2022-08-09T19:35:15.760Z,1.85
2022-08-09T19:37:55.924Z,1.70
2022-08-09T19:40:33.135Z,1.60
2022-08-09T19:43:01.931Z,1.52
2022-08-09T19:45:39.068Z,1.80
2022-08-09T19:48:09.479Z,1.67
2022-08-09T19:50:49.720Z,1.67
2022-08-09T19:53:20.753Z,1.70
2022-08-09T19:56:02.027Z,1.60
2022-08-09T19:58:32.834Z,1.42
2022-08-09T20:01:00.064Z,1.70
2022-08-09T20:04:18.429Z,1.50
2022-08-09T20:06:23.773Z,1.70
2022-08-09T20:08:57.008Z,1.80
2022-08-09T20:11:25.843Z,1.80
2022-08-09T20:13:54.233Z,1.67
2022-08-09T20:16:33.117Z,1.88
2022-08-09T20:19:48.669Z,2.13
2022-08-09T20:21:56.103Z,2.53
2022-08-09T20:24:29.796Z,2.20
2022-08-09T20:27:01.556Z,1.92
2022-08-09T20:29:32.625Z,1.80
2022-08-09T20:32:29.398Z,2.08
2022-08-09T20:34:55.081Z,1.50
2022-08-09T20:37:22.783Z,1.58
2022-08-09T20:40:15.919Z,1.80
2022-08-09T20:42:37.904Z,1.60
2022-08-09T20:45:56.909Z,2.05
2022-08-09T20:47:52.391Z,1.55
2022-08-09T20:50:47.859Z,1.55
2022-08-09T20:53:34.972Z,2.15
2022-08-09T20:56:02.337Z,1.80
2022-08-09T20:58:32.429Z,2.03
2022-08-09T21:01:02.266Z,2.38
2022-08-09T21:05:49.069Z,2.03
2022-08-09T21:06:28.005Z,1.77
2022-08-09T21:08:58.436Z,1.70
2022-08-09T21:14:12.284Z,1.60
2022-08-09T21:16:39.072Z,1.58
2022-08-09T21:20:19.523Z,2.33
2022-08-09T21:21:56.279Z,1.90
2022-08-09T21:24:28.853Z,1.73
2022-08-09T21:26:59.786Z,1.60
2022-08-09T21:29:48.986Z,1.90
2022-08-09T21:32:18.496Z,2.05
2022-08-09T21:34:49.215Z,2.33
2022-08-09T21:37:18.083Z,1.60
2022-08-09T21:39:45.402Z,1.50
2022-08-09T21:42:17.030Z,1.73
2022-08-09T21:44:44.389Z,1.65
2022-08-09T21:47:14.108Z,1.90
2022-08-09T21:49:44.589Z,1.77
2022-08-09T21:52:14.651Z,1.83
2022-08-09T21:54:59.633Z,2.17
2022-08-09T21:57:38.816Z,2.08
2022-08-09T22:00:26.840Z,1.88
2022-08-09T22:03:00.966Z,1.77
2022-08-09T22:05:33.666Z,1.83
2022-08-09T22:08:13.690Z,1.70
2022-08-09T22:11:48.777Z,2.33
2022-08-09T22:13:31.520Z,1.98
2022-08-09T22:16:01.142Z,1.88
2022-08-09T22:18:32.844Z,2.00
2022-08-09T22:21:00.440Z,1.92
2022-08-09T22:23:27.242Z,1.77
2022-08-09T22:26:06.900Z,1.67
2022-08-09T22:28:43.624Z,1.70
2022-08-09T22:31:20.495Z,1.80
2022-08-09T22:33:55.144Z,1.98
2022-08-09T22:36:22.538Z,1.88
2022-08-09T22:38:49.300Z,1.77
2022-08-09T22:41:16.355Z,1.63
2022-08-09T22:44:01.922Z,1.55
2022-08-09T22:48:12.117Z,1.70
2022-08-09T22:49:17.531Z,1.90
2022-08-09T22:51:49.953Z,2.03
2022-08-09T22:54:23.681Z,1.65
2022-08-09T22:56:56.742Z,1.90
2022-08-09T22:59:55.159Z,2.53
2022-08-09T23:02:14.925Z,1.90
2022-08-09T23:04:53.315Z,1.75
2022-08-09T23:08:22.528Z,1.88
2022-08-09T23:10:26.944Z,2.13
2022-08-09T23:12:53.697Z,2.10
2022-08-09T23:15:20.487Z,1.85
2022-08-09T23:17:47.223Z,1.70
2022-08-09T23:20:14.014Z,2.30
2022-08-09T23:22:40.907Z,1.77
2022-08-09T23:25:08.049Z,1.90
2022-08-09T23:27:35.011Z,1.98
2022-08-09T23:30:02.020Z,1.75
2022-08-09T23:32:28.799Z,1.75
2022-08-09T23:34:55.657Z,2.00
2022-08-09T23:37:25.536Z,1.92
2022-08-09T23:39:52.465Z,1.75
2022-08-09T23:42:19.253Z,1.90
2022-08-09T23:44:46.149Z,1.90
2022-08-09T23:47:12.967Z,1.45
2022-08-09T23:49:39.730Z,1.85
2022-08-09T23:52:06.851Z,2.00
2022-08-09T23:54:33.623Z,1.92
2022-08-09T23:57:02.591Z,1.80
2022-08-09T23:59:51.069Z,2.13
